Vision of The Seas — C6SE8 — position and weather

sailwx.info

Track history (hours):
 
Tides and Currents Weather Stations Pressure Air Temp Water Temp Dewpoint Dewpoint Depression Visibility Wind Speed Wind Dir Waves Ship Positions

Vision of The Seas

Operator: Royal Caribbean Cruises Ltd

Last reported at 2020-Jan-18 20:29 UTC. Time now 2020-Jan-18 20:41 UTC.
Position N 18°28' W 066°06'.

Type: Passenger vessel. MMSI: 311321000.

Date/timePositionNaut miles runAvg speedWind from/ knotsBaromVisibWave heightAir tempDewpointWater temp
2020-Jan-18 20:29N 18°28' W 066°06'0 0.0
2020-Jan-18 19:29N 18°28' W 066°06'0 0.0
2020-Jan-18 17:59N 18°28' W 066°06'0 0.0
2020-Jan-18 17:29N 18°28' W 066°06'0 0.0
2020-Jan-18 16:29N 18°28' W 066°06'0 0.0
2020-Jan-18 15:29N 18°28' W 066°06'0 0.0
2020-Jan-18 14:59N 18°28' W 066°06'0 0.0
2020-Jan-18 13:29N 18°28' W 066°06'0 0.0
2020-Jan-18 10:29N 18°28' W 066°06'0 0.0
2020-Jan-18 09:56N 18°28' W 066°06'42 5.3
2020-Jan-18 02:00N 18°37' W 065°22'7 7.3
2020-Jan-18 01:00N 18°31' W 065°17'7 7.2
2020-Jan-18 00:00N 18°26' W 065°12'15 1.2
2020-Jan-17 11:29N 18°19' W 064°58'85 7.6
2020-Jan-17 00:23N 18°02' W 063°30'26 2.4
2020-Jan-16 13:32N 18°01' W 063°03'0 0.1
2020-Jan-16 11:00N 18°00' W 063°03'1912.1
2020-Jan-16 09:25N 17°42' W 063°06'  
2020-Jan-12 03:00N 18°29' W 065°40'2612.9
2020-Jan-12 00:57N 18°28' W 066°07'1 1.4
2020-Jan-11 23:56N 18°28' W 066°06'0 0.0
2020-Jan-11 22:59N 18°28' W 066°06'0 0.0
2020-Jan-11 22:29N 18°28' W 066°06'0 0.0
2020-Jan-11 21:29N 18°28' W 066°06'0 0.0
2020-Jan-11 20:59N 18°28' W 066°06'0 0.0
2020-Jan-11 16:56N 18°28' W 066°06'0 0.0
2020-Jan-11 15:53N 18°28' W 066°06'0 0.0
2020-Jan-11 10:56N 18°28' W 066°06'34 7.7
2020-Jan-11 06:31N 18°30' W 065°30'4113.7
2020-Jan-11 03:30N 18°09' W 064°52'4713.4
2020-Jan-11 00:00N 17°42' W 064°12'   060 / 311019.027.0 26.026.0
Track history (hours):
 
Tides and Currents Weather Stations Pressure Air Temp Water Temp Dewpoint Dewpoint Depression Visibility Wind Speed Wind Dir Waves Ship Positions

Vision of The Seas

Operator: Royal Caribbean Cruises Ltd

Last reported at 2020-Jan-18 20:29 UTC. Time now 2020-Jan-18 20:41 UTC.
Position N 18°28' W 066°06'.

Type: Passenger vessel. MMSI: 311321000.

Date/timePositionNaut miles runAvg speedWind from/ knotsBaromVisibWave heightAir tempDewpointWater temp
2020-Jan-18 20:29N 18°28' W 066°06'0 0.0
2020-Jan-18 19:29N 18°28' W 066°06'0 0.0
2020-Jan-18 17:59N 18°28' W 066°06'0 0.0
2020-Jan-18 17:29N 18°28' W 066°06'0 0.0
2020-Jan-18 16:29N 18°28' W 066°06'0 0.0
2020-Jan-18 15:29N 18°28' W 066°06'0 0.0
2020-Jan-18 14:59N 18°28' W 066°06'0 0.0
2020-Jan-18 13:29N 18°28' W 066°06'0 0.0
2020-Jan-18 10:29N 18°28' W 066°06'0 0.0
2020-Jan-18 09:56N 18°28' W 066°06'42 5.3
2020-Jan-18 02:00N 18°37' W 065°22'7 7.3
2020-Jan-18 01:00N 18°31' W 065°17'7 7.2
2020-Jan-18 00:00N 18°26' W 065°12'15 1.2
2020-Jan-17 11:29N 18°19' W 064°58'85 7.6
2020-Jan-17 00:23N 18°02' W 063°30'26 2.4
2020-Jan-16 13:32N 18°01' W 063°03'0 0.1
2020-Jan-16 11:00N 18°00' W 063°03'1912.1
2020-Jan-16 09:25N 17°42' W 063°06'  
2020-Jan-12 03:00N 18°29' W 065°40'2612.9
2020-Jan-12 00:57N 18°28' W 066°07'1 1.4
2020-Jan-11 23:56N 18°28' W 066°06'0 0.0
2020-Jan-11 22:59N 18°28' W 066°06'0 0.0
2020-Jan-11 22:29N 18°28' W 066°06'0 0.0
2020-Jan-11 21:29N 18°28' W 066°06'0 0.0
2020-Jan-11 20:59N 18°28' W 066°06'0 0.0
2020-Jan-11 16:56N 18°28' W 066°06'0 0.0
2020-Jan-11 15:53N 18°28' W 066°06'0 0.0
2020-Jan-11 10:56N 18°28' W 066°06'34 7.7
2020-Jan-11 06:31N 18°30' W 065°30'4113.7
2020-Jan-11 03:30N 18°09' W 064°52'4713.4
2020-Jan-11 00:00N 17°42' W 064°12'   060 / 311019.027.0 26.026.0

Dump ship's entire track history